Coronado, Arizona
Current Conditions -  °F | °C
As of 8:33 PM on Tuesday 21 Oct 2014 (Local Time) from KDMA Reporting Station
Haze Haze  
Wind Chill: 72°   Ceiling: Unl
Heat Index: 72°   Visibility: 4mi
Dew Point: 46°   Wind: 5mph
Humidity: 41%   Direction: 320°NW
Pressure: 29.9"   Gusts: NA
Location:  32.2154°N, 110.884°W
Report Text: KDMA 220333Z AUTO 32004KT 4SM R12/4500FT HZ CLR 22/08 A2990 RMK AO2
Loading
Personal Weather Stations






























Interactive Weather Map
Tropical Storm Tracking
New forecast layout! Learn more

10-Day Weather Forecast

Advertisements
Track Severe Weather on mobile